Time;durP1;ratioP1;P1;durP2;ratioP2;P2;SDS_P1;SDS_P2;PMS_P1;PMS_P2;Temp;Humidity;BMP_temperature;BMP_pressure;BME280_temperature;BME280_humidity;BME280_pressure;Samples;Min_cycle;Max_cycle;Signal;HPM_P1;HPM_P2
2021/08/08 00:00:29;;;;;;;3.53;1.85;;;;;;;24.72;48.20;99893.50;5114730;28;20024;-70
2021/08/08 00:02:57;;;;;;;2.47;2.33;;;;;;;24.65;48.50;99902.28;5115384;28;20035;-70
2021/08/08 00:05:25;;;;;;;2.42;2.08;;;;;;;24.59;49.10;99899.25;5114785;28;20496;-70
2021/08/08 00:07:54;;;;;;;3.65;2.45;;;;;;;24.59;50.00;99904.16;5114974;28;20390;-70
2021/08/08 00:10:22;;;;;;;3.95;2.40;;;;;;;24.67;49.75;99899.78;5114973;28;20027;-70
2021/08/08 00:12:50;;;;;;;4.00;2.53;;;;;;;24.60;50.15;99900.06;5114894;28;20039;-70
2021/08/08 00:15:16;;;;;;;3.55;1.95;;;;;;;24.67;50.08;99905.47;5114832;28;20024;-70
2021/08/08 00:17:44;;;;;;;2.92;2.40;;;;;;;24.68;49.75;99898.53;5114624;28;20382;-70
2021/08/08 00:20:12;;;;;;;2.38;1.95;;;;;;;24.80;49.26;99911.84;5115071;28;20374;-70
2021/08/08 00:22:42;;;;;;;2.33;1.92;;;;;;;24.77;49.02;99904.28;5116025;28;20440;-71
2021/08/08 00:25:10;;;;;;;2.53;1.63;;;;;;;24.74;48.69;99905.97;5114483;28;20100;-70
2021/08/08 00:27:39;;;;;;;3.50;1.92;;;;;;;24.74;48.92;99922.25;5114402;28;20059;-71
2021/08/08 00:30:08;;;;;;;3.22;1.77;;;;;;;24.70;48.84;99915.91;5114318;27;20027;-70
2021/08/08 00:32:39;;;;;;;2.00;1.83;;;;;;;24.67;48.79;99914.00;5131644;27;20027;-70
2021/08/08 00:35:06;;;;;;;2.42;2.17;;;;;;;24.58;50.47;99909.06;5131893;27;20118;-71
2021/08/08 00:37:34;;;;;;;3.03;2.53;;;;;;;24.54;51.38;99908.41;5115355;28;20126;-71
2021/08/08 00:40:06;;;;;;;2.80;2.28;;;;;;;24.49;51.29;99909.00;5114180;28;20024;-70
2021/08/08 00:42:32;;;;;;;5.18;3.53;;;;;;;24.48;53.18;99905.38;5131163;27;20047;-70
2021/08/08 00:45:02;;;;;;;4.88;3.47;;;;;;;24.42;54.13;99912.91;5131206;27;20070;-70
2021/08/08 00:47:30;;;;;;;5.32;3.83;;;;;;;24.30;55.61;99917.41;5115258;28;20036;-70
2021/08/08 00:49:58;;;;;;;6.93;3.95;;;;;;;24.27;55.75;99917.53;5113940;28;20547;-70
2021/08/08 00:52:24;;;;;;;6.40;4.07;;;;;;;24.26;56.08;99911.03;5114173;28;20046;-70
2021/08/08 00:54:52;;;;;;;8.32;4.75;;;;;;;24.17;56.08;99919.50;5113652;28;20474;-70
2021/08/08 00:57:20;;;;;;;6.65;3.92;;;;;;;24.09;55.96;99920.25;5114073;28;20028;-72
2021/08/08 00:59:48;;;;;;;7.97;4.30;;;;;;;24.12;55.19;99916.47;5113744;28;20028;-71
2021/08/08 01:02:21;;;;;;;7.03;4.68;;;;;;;24.10;55.28;99913.31;5113651;28;20539;-70
2021/08/08 01:05:07;;;;;;;4.38;3.97;;;;;;;24.03;55.54;99915.16;5113941;28;20023;-70
2021/08/08 01:07:56;;;;;;;5.57;4.80;;;;;;;23.90;53.94;99928.59;5113577;28;20462;-70
2021/08/08 01:10:28;;;;;;;7.28;4.13;;;;;;;23.94;52.93;99928.50;5114086;27;20028;-70
2021/08/08 01:12:57;;;;;;;3.88;3.45;;;;;;;23.96;52.53;99926.75;5113267;28;20027;-70
2021/08/08 01:15:25;;;;;;;5.43;2.95;;;;;;;24.08;51.44;99927.19;5113929;28;20030;-70
2021/08/08 01:17:52;;;;;;;4.60;2.10;;;;;;;24.11;50.97;99927.03;5130564;27;20119;-69
2021/08/08 01:20:24;;;;;;;3.35;2.50;;;;;;;24.23;50.98;99933.91;5114137;28;20030;-70
2021/08/08 01:22:57;;;;;;;2.53;2.10;;;;;;;24.17;51.04;99935.78;5113348;28;20034;-69
2021/08/08 01:25:23;;;;;;;2.97;2.45;;;;;;;24.10;51.31;99921.81;5114597;28;20058;-70
2021/08/08 01:27:55;;;;;;;2.45;2.17;;;;;;;24.07;51.75;99931.25;5113542;28;20385;-70
2021/08/08 01:30:23;;;;;;;5.68;2.45;;;;;;;24.02;51.82;99933.47;5114699;28;20466;-71
2021/08/08 01:32:51;;;;;;;6.65;3.60;;;;;;;23.99;52.32;99927.91;5114449;28;20111;-71
2021/08/08 01:35:19;;;;;;;5.03;2.35;;;;;;;23.99;52.25;99925.84;5113049;28;20020;-71
2021/08/08 01:37:48;;;;;;;5.82;2.38;;;;;;;24.05;52.24;99926.84;5113071;28;20085;-71
2021/08/08 01:40:24;;;;;;;2.20;2.00;;;;;;;23.99;52.35;99923.00;5113121;28;20040;-70
2021/08/08 01:42:54;;;;;;;4.15;2.33;;;;;;;23.98;52.20;99924.28;5127588;27;20028;-70
2021/08/08 01:45:23;;;;;;;2.20;2.10;;;;;;;23.99;52.42;99914.47;5096176;28;20059;-71
2021/08/08 01:47:59;;;;;;;2.70;2.50;;;;;;;24.03;52.28;99926.53;5112939;28;20547;-71
2021/08/08 01:50:33;;;;;;;4.93;2.65;;;;;;;24.03;52.36;99928.56;5113868;28;20470;-70
2021/08/08 01:53:08;;;;;;;3.60;2.33;;;;;;;23.95;52.59;99925.19;5130305;27;20023;-71
2021/08/08 01:55:40;;;;;;;3.17;2.75;;;;;;;23.99;52.91;99925.84;5131085;27;20036;-70
2021/08/08 01:58:08;;;;;;;2.58;2.30;;;;;;;23.93;53.15;99922.00;5113116;28;20470;-70
2021/08/08 02:00:36;;;;;;;4.68;2.67;;;;;;;23.87;53.03;99932.38;5113104;28;20110;-71
2021/08/08 02:03:09;;;;;;;3.42;2.70;;;;;;;23.79;53.45;99929.00;5130139;28;20363;-71
2021/08/08 02:05:45;;;;;;;3.13;2.83;;;;;;;23.75;53.71;99930.38;5113681;28;20478;-69
2021/08/08 02:08:13;;;;;;;5.88;2.72;;;;;;;23.59;54.40;99930.50;5113996;28;20020;-72
2021/08/08 02:10:41;;;;;;;4.80;2.83;;;;;;;23.85;53.74;99920.69;5113274;28;20150;-72
2021/08/08 02:13:09;;;;;;;3.67;2.58;;;;;;;23.79;54.30;99917.63;5112544;28;20127;-71
2021/08/08 02:15:40;;;;;;;5.13;2.75;;;;;;;23.69;54.67;99923.69;5130323;28;20028;-71
2021/08/08 02:18:08;;;;;;;3.15;2.55;;;;;;;23.63;54.78;99922.69;5112338;28;20059;-70
2021/08/08 02:20:39;;;;;;;3.58;2.92;;;;;;;23.60;54.74;99915.84;5112599;28;20034;-71
2021/08/08 02:23:04;;;;;;;30.05;24.63;;;;;;;23.59;54.66;99907.78;5112827;28;20492;-71
2021/08/08 02:25:30;;;;;;;107.57;80.07;;;;;;;23.65;53.63;99903.13;5116279;28;20031;-70
2021/08/08 02:28:01;;;;;;;89.18;68.57;;;;;;;23.66;53.59;99899.06;5117006;28;20055;-70
2021/08/08 02:30:31;;;;;;;43.47;32.08;;;;;;;23.67;52.88;99909.16;5116696;28;20470;-70
2021/08/08 02:32:59;;;;;;;25.17;18.17;;;;;;;23.66;52.60;99901.91;5116924;28;20031;-70
2021/08/08 02:35:26;;;;;;;18.77;14.73;;;;;;;23.58;53.05;99911.88;5116548;28;20051;-71
2021/08/08 02:37:57;;;;;;;25.92;18.58;;;;;;;23.49;53.45;99909.75;5117081;28;20039;-70
2021/08/08 02:40:27;;;;;;;24.65;22.15;;;;;;;23.54;53.43;99917.66;5116730;28;20100;-70
2021/08/08 02:42:58;;;;;;;25.00;22.40;;;;;;;23.46;53.46;99917.13;5116462;28;20063;-71
2021/08/08 02:45:23;;;;;;;15.13;13.60;;;;;;;23.52;53.62;99906.00;5116712;28;20481;-70
2021/08/08 02:47:51;;;;;;;7.78;6.97;;;;;;;23.46;53.72;99911.47;5116627;28;20035;-70
2021/08/08 02:50:17;;;;;;;8.25;7.35;;;;;;;23.40;54.20;99901.94;5116847;28;20020;-70
2021/08/08 02:52:45;;;;;;;8.60;7.78;;;;;;;23.44;54.10;99894.09;5116211;28;20522;-70
2021/08/08 02:55:15;;;;;;;8.05;7.20;;;;;;;23.51;54.32;99908.03;5116381;28;20058;-69
2021/08/08 02:57:49;;;;;;;9.50;6.07;;;;;;;23.49;54.34;99904.88;5116111;28;20038;-71
2021/08/08 03:00:19;;;;;;;10.55;5.25;;;;;;;23.48;54.25;99897.59;5133257;27;20032;-70
2021/08/08 03:02:47;;;;;;;5.78;5.18;;;;;;;23.36;54.54;99906.94;5116051;28;20114;-69
2021/08/08 03:05:18;;;;;;;7.93;5.38;;;;;;;23.36;54.70;99901.25;5116556;28;20078;-70
2021/08/08 03:07:49;;;;;;;7.93;4.50;;;;;;;23.49;55.02;99910.56;5116210;28;20035;-69
2021/08/08 03:10:21;;;;;;;4.90;3.78;;;;;;;23.43;55.10;99914.41;5116482;28;20051;-70
2021/08/08 03:12:46;;;;;;;6.38;4.47;;;;;;;23.48;55.29;99914.63;5116169;28;20459;-69
2021/08/08 03:15:17;;;;;;;6.40;4.63;;;;;;;23.32;55.89;99905.47;5115717;28;20027;-70
2021/08/08 03:17:46;;;;;;;5.50;4.63;;;;;;;23.24;56.06;99900.03;5115572;28;20031;-70
2021/08/08 03:20:20;;;;;;;4.45;4.05;;;;;;;23.25;56.19;99901.63;5132892;27;20023;-70
2021/08/08 03:22:47;;;;;;;6.28;4.35;;;;;;;23.31;56.24;99896.16;5115939;28;20043;-70
2021/08/08 03:25:18;;;;;;;4.90;4.15;;;;;;;23.34;56.22;99902.97;5115601;28;20031;-70
2021/08/08 03:27:50;;;;;;;4.05;3.70;;;;;;;23.23;56.51;99903.34;5116430;28;20034;-70
2021/08/08 03:30:18;;;;;;;4.82;4.05;;;;;;;23.17;56.74;99907.97;5116120;28;20027;-69
2021/08/08 03:32:49;;;;;;;5.22;3.80;;;;;;;23.32;56.54;99905.47;5117044;28;20072;-70
2021/08/08 03:35:20;;;;;;;4.40;3.78;;;;;;;23.28;56.50;99911.28;5114960;28;20106;-71
2021/08/08 03:37:50;;;;;;;4.55;3.85;;;;;;;23.30;56.65;99916.50;5115693;28;20039;-71
2021/08/08 03:40:16;;;;;;;4.88;3.85;;;;;;;23.29;56.45;99912.06;5115893;28;20027;-71
2021/08/08 03:42:44;;;;;;;5.20;3.47;;;;;;;23.20;57.12;99916.38;5115271;28;20035;-70
2021/08/08 03:45:13;;;;;;;4.60;3.90;;;;;;;23.22;56.95;99913.06;5115248;28;20038;-70
2021/08/08 03:47:44;;;;;;;5.05;3.72;;;;;;;23.14;57.35;99917.41;5115436;28;20485;-70
2021/08/08 03:50:10;;;;;;;3.97;3.65;;;;;;;23.16;57.48;99924.22;5115169;28;20475;-70
2021/08/08 03:52:38;;;;;;;6.65;3.90;;;;;;;23.26;57.25;99925.13;5115359;28;20034;-70
2021/08/08 03:55:05;;;;;;;4.32;3.30;;;;;;;23.32;57.16;99928.97;5115024;28;20063;-70
2021/08/08 03:57:36;;;;;;;5.63;3.08;;;;;;;23.33;57.22;99922.06;5132075;27;20088;-70
2021/08/08 04:00:04;;;;;;;4.57;3.83;;;;;;;23.36;57.65;99932.47;5114968;28;20064;-71
2021/08/08 04:02:32;;;;;;;5.93;3.55;;;;;;;23.37;57.46;99930.44;5114614;28;20032;-71
2021/08/08 04:05:00;;;;;;;4.35;3.13;;;;;;;23.44;57.56;99933.84;5115081;28;20035;-71
2021/08/08 04:07:32;;;;;;;6.65;3.78;;;;;;;23.40;57.48;99938.06;5116394;28;20030;-70
2021/08/08 04:10:00;;;;;;;8.18;3.88;;;;;;;23.37;57.49;99924.75;5114787;28;20024;-71
2021/08/08 04:12:31;;;;;;;7.20;2.95;;;;;;;23.45;56.87;99938.25;5114729;28;20028;-71
2021/08/08 04:15:08;;;;;;;5.25;2.78;;;;;;;23.66;56.08;99930.31;5114598;28;20051;-71
2021/08/08 04:17:33;;;;;;;5.10;3.28;;;;;;;23.61;56.02;99936.53;5111176;28;20038;-71
2021/08/08 04:20:03;;;;;;;3.83;2.80;;;;;;;23.71;55.92;99935.41;5114569;28;20031;-72
2021/08/08 04:22:31;;;;;;;4.30;2.45;;;;;;;23.76;54.85;99929.94;5131589;27;20031;-71
2021/08/08 04:25:01;;;;;;;4.50;2.65;;;;;;;23.93;54.07;99939.06;5114739;28;20424;-71
2021/08/08 04:27:32;;;;;;;5.38;3.20;;;;;;;24.05;53.65;99935.38;5114389;28;20535;-71
2021/08/08 04:30:00;;;;;;;3.63;2.38;;;;;;;24.12;53.36;99944.88;5114627;28;20027;-70
2021/08/08 04:32:28;;;;;;;4.93;2.00;;;;;;;24.12;53.46;99939.19;5114555;28;20531;-70
2021/08/08 04:34:57;;;;;;;3.20;2.15;;;;;;;24.27;52.87;99940.28;5114491;28;20374;-71
2021/08/08 04:37:25;;;;;;;2.20;2.00;;;;;;;24.60;51.69;99934.19;5114179;28;20032;-70
2021/08/08 04:39:53;;;;;;;2.13;1.92;;;;;;;24.65;51.04;99936.44;5131234;27;20030;-70
2021/08/08 04:42:23;;;;;;;2.28;1.70;;;;;;;24.85;49.91;99928.31;5114017;28;20035;-70
2021/08/08 04:44:54;;;;;;;2.50;1.77;;;;;;;25.19;49.18;99941.59;5131187;27;20035;-70
2021/08/08 04:47:24;;;;;;;2.92;1.80;;;;;;;25.66;48.32;99939.66;5113170;28;20035;-69
2021/08/08 04:49:55;;;;;;;3.85;2.38;;;;;;;26.09;47.22;99944.28;5114018;28;20023;-71
2021/08/08 04:52:23;;;;;;;2.63;1.92;;;;;;;26.48;45.84;99953.19;5113933;28;20089;-71
2021/08/08 04:54:51;;;;;;;2.58;1.73;;;;;;;26.85;45.17;99948.16;5113799;28;20023;-70
2021/08/08 04:57:18;;;;;;;2.45;1.73;;;;;;;27.34;44.38;99941.31;5113829;28;20123;-72
2021/08/08 04:59:46;;;;;;;1.95;1.67;;;;;;;27.79;42.95;99939.47;5114284;28;20481;-70
2021/08/08 05:02:19;;;;;;;2.22;1.77;;;;;;;28.14;41.41;99948.25;5130807;27;20023;-71
2021/08/08 05:04:47;;;;;;;3.20;1.63;;;;;;;28.54;40.77;99953.44;5113677;28;20087;-70
2021/08/08 05:07:18;;;;;;;1.35;1.25;;;;;;;28.80;39.59;99947.13;5113661;28;20115;-71
2021/08/08 05:09:44;;;;;;;1.40;1.30;;;;;;;28.89;39.67;99955.59;5114118;28;20031;-71
2021/08/08 05:12:16;;;;;;;3.13;2.00;;;;;;;28.67;39.97;99948.22;5114489;28;20108;-71
2021/08/08 05:14:44;;;;;;;3.95;1.75;;;;;;;28.34;40.89;99959.06;5113689;28;20024;-71
2021/08/08 05:17:14;;;;;;;4.00;1.83;;;;;;;28.09;41.81;99952.56;5113705;28;20035;-71
2021/08/08 05:19:42;;;;;;;2.55;1.70;;;;;;;28.06;41.42;99956.38;5112990;28;20070;-72
2021/08/08 05:22:13;;;;;;;4.07;1.80;;;;;;;28.53;40.73;99951.06;5130505;27;20033;-71
2021/08/08 05:24:41;;;;;;;2.33;1.70;;;;;;;29.30;39.10;99950.81;5113054;28;20127;-71
2021/08/08 05:27:09;;;;;;;3.10;1.90;;;;;;;29.77;38.66;99950.97;5113281;28;20032;-71
2021/08/08 05:29:37;;;;;;;1.55;1.42;;;;;;;29.58;38.46;99939.78;5113173;28;20028;-71
2021/08/08 05:32:03;;;;;;;1.45;1.35;;;;;;;30.28;37.44;99950.31;5113471;28;20374;-71
2021/08/08 05:34:33;;;;;;;3.65;1.88;;;;;;;30.88;36.03;99950.63;5112945;28;20031;-70
2021/08/08 05:37:01;;;;;;;3.45;1.30;;;;;;;31.48;35.26;99966.00;5113058;28;20107;-71
2021/08/08 05:39:29;;;;;;;2.05;1.85;;;;;;;32.05;34.29;99962.13;5113550;28;20081;-71
2021/08/08 05:42:00;;;;;;;2.25;1.60;;;;;;;32.49;33.49;99969.34;5113278;28;20363;-71
2021/08/08 05:44:28;;;;;;;2.38;1.52;;;;;;;32.90;32.83;99971.78;5113293;28;20137;-71
2021/08/08 05:46:59;;;;;;;2.10;1.60;;;;;;;33.28;31.67;99973.84;5112690;28;20020;-71
2021/08/08 05:49:27;;;;;;;2.65;1.25;;;;;;;33.21;31.56;99983.03;5113481;28;20100;-71
2021/08/08 05:51:54;;;;;;;3.70;1.65;;;;;;;33.46;30.50;99955.25;5112826;28;20019;-71
2021/08/08 05:54:22;;;;;;;2.50;1.75;;;;;;;34.02;29.82;99972.38;5112747;28;20023;-71
2021/08/08 05:56:51;;;;;;;3.40;1.25;;;;;;;34.26;29.65;99956.53;5112958;27;20489;-71
2021/08/08 05:59:19;;;;;;;2.10;1.30;;;;;;;34.54;29.09;99962.94;5112618;28;20036;-71
2021/08/08 06:01:48;;;;;;;3.15;1.58;;;;;;;34.80;28.39;99964.59;5112755;28;20026;-71
2021/08/08 06:04:18;;;;;;;2.67;1.52;;;;;;;35.17;28.29;99976.41;5114478;28;20039;-71
2021/08/08 06:06:53;;;;;;;2.78;1.90;;;;;;;35.31;27.55;99973.63;5112646;28;20088;-71
2021/08/08 06:09:27;;;;;;;2.13;1.98;;;;;;;35.66;27.09;99970.66;5113574;28;20496;-72
2021/08/08 06:11:58;;;;;;;2.05;1.77;;;;;;;35.80;27.25;99973.69;5112523;28;20111;-71
2021/08/08 06:14:28;;;;;;;2.78;1.95;;;;;;;35.90;26.37;99972.75;5112483;28;20019;-71
2021/08/08 06:16:56;;;;;;;5.80;1.40;;;;;;;36.33;26.01;99986.44;5113586;28;20023;-72
2021/08/08 06:19:25;;;;;;;2.58;1.77;;;;;;;36.11;25.99;99980.94;5112043;28;20066;-71
2021/08/08 06:21:50;;;;;;;4.65;1.70;;;;;;;35.68;26.33;99976.66;5112495;28;20129;-72
2021/08/08 06:24:24;;;;;;;2.03;1.38;;;;;;;34.74;27.88;99973.31;5112589;28;20086;-72
2021/08/08 06:26:52;;;;;;;3.08;1.90;;;;;;;34.97;27.95;99970.28;5112458;28;20035;-72
2021/08/08 06:29:20;;;;;;;1.85;1.38;;;;;;;35.12;27.88;99967.78;5113199;28;20035;-71
2021/08/08 06:31:46;;;;;;;1.77;1.35;;;;;;;35.25;27.30;99970.78;5112415;28;20028;-71
2021/08/08 06:34:17;;;;;;;2.35;1.60;;;;;;;35.79;27.15;99972.88;5112824;28;20028;-72
2021/08/08 06:36:49;;;;;;;2.40;1.60;;;;;;;35.87;26.79;99970.94;5113423;28;20024;-72
2021/08/08 06:39:19;;;;;;;4.03;1.83;;;;;;;35.53;28.50;99966.84;5112419;28;20032;-72
2021/08/08 06:41:45;;;;;;;6.10;2.55;;;;;;;35.25;29.31;99970.78;5112569;28;20024;-71
2021/08/08 06:44:13;;;;;;;3.38;3.00;;;;;;;35.14;28.04;99965.13;5112405;28;20055;-72
2021/08/08 06:46:44;;;;;;;1.88;1.70;;;;;;;35.21;27.21;99972.41;5112380;28;20031;-71
2021/08/08 06:49:11;;;;;;;3.20;2.10;;;;;;;35.49;27.71;99972.97;5112401;28;20038;-71
2021/08/08 06:51:39;;;;;;;3.08;2.53;;;;;;;36.07;27.31;99966.78;5112814;28;20466;-71
2021/08/08 06:54:08;;;;;;;2.58;2.33;;;;;;;36.71;26.83;99977.75;5112248;28;20081;-71
2021/08/08 06:56:35;;;;;;;3.03;1.90;;;;;;;36.24;26.38;99983.16;5112765;28;20036;-71
2021/08/08 06:59:01;;;;;;;2.88;2.45;;;;;;;35.68;27.23;99967.22;5112226;28;20024;-71
2021/08/08 07:01:29;;;;;;;4.95;2.10;;;;;;;36.52;26.58;99976.97;5112394;28;20066;-72
2021/08/08 07:03:59;;;;;;;3.00;2.20;;;;;;;36.47;26.85;99976.50;5112454;28;20034;-73
2021/08/08 07:06:29;;;;;;;2.10;1.85;;;;;;;36.89;26.43;99979.06;5114030;28;20059;-70
2021/08/08 07:08:57;;;;;;;4.10;1.67;;;;;;;37.05;26.10;99975.09;5112152;28;20032;-71
2021/08/08 07:11:28;;;;;;;3.13;2.25;;;;;;;36.71;26.07;99972.72;5115083;28;20102;-71
2021/08/08 07:13:59;;;;;;;5.03;2.05;;;;;;;36.38;26.89;99973.19;5116066;28;20031;-71
2021/08/08 07:16:24;;;;;;;3.50;2.35;;;;;;;36.59;26.30;99973.44;5115832;28;20026;-71
2021/08/08 07:18:52;;;;;;;5.10;1.90;;;;;;;36.04;27.21;99970.75;5115539;28;20052;-72
2021/08/08 07:21:21;;;;;;;2.40;2.20;;;;;;;36.02;27.41;99961.84;5115617;28;20043;-71
2021/08/08 07:23:52;;;;;;;4.43;2.58;;;;;;;35.58;27.55;99978.38;5116121;28;20028;-71
2021/08/08 07:26:27;;;;;;;2.65;2.30;;;;;;;36.50;26.39;99982.53;5117095;28;20032;-70
2021/08/08 07:28:56;;;;;;;2.75;2.00;;;;;;;36.35;27.40;99980.09;5117127;28;20027;-71
2021/08/08 07:31:24;;;;;;;3.22;2.00;;;;;;;35.84;27.79;99977.81;5115724;28;20445;-71
2021/08/08 07:33:54;;;;;;;4.28;2.55;;;;;;;36.39;26.92;99972.66;5115321;28;20491;-70
2021/08/08 07:36:19;;;;;;;2.53;2.30;;;;;;;36.69;26.46;99989.09;5115627;28;20031;-71
2021/08/08 07:38:47;;;;;;;2.30;2.10;;;;;;;35.93;27.24;99983.25;5132449;27;20497;-71
2021/08/08 07:41:19;;;;;;;4.97;2.60;;;;;;;35.98;27.64;99995.31;5115213;28;20470;-72
2021/08/08 07:43:47;;;;;;;4.43;3.83;;;;;;;36.77;26.28;99995.81;5115552;28;20390;-72
2021/08/08 07:46:14;;;;;;;3.75;2.70;;;;;;;36.30;26.70;99999.09;5115449;28;20028;-72
2021/08/08 07:48:40;;;;;;;4.50;2.47;;;;;;;36.01;27.03;99994.22;5116508;28;20031;-72
2021/08/08 07:51:08;;;;;;;4.95;2.65;;;;;;;35.97;27.47;99994.53;5115395;28;20028;-71
2021/08/08 07:53:37;;;;;;;2.63;1.90;;;;;;;35.98;28.02;100001.09;5132089;27;20031;-71
2021/08/08 07:56:08;;;;;;;3.95;2.08;;;;;;;35.23;28.91;100005.25;5115040;28;20087;-72
2021/08/08 07:58:38;;;;;;;3.42;1.90;;;;;;;35.24;28.33;99998.16;5115600;28;20400;-71
2021/08/08 08:01:06;;;;;;;2.40;2.05;;;;;;;34.74;29.01;100002.22;5115321;28;20363;-72
2021/08/08 08:03:34;;;;;;;5.72;2.15;;;;;;;34.84;29.40;100005.56;5115217;28;20034;-71
2021/08/08 08:06:05;;;;;;;3.38;2.20;;;;;;;34.65;28.92;100011.19;5114871;28;20076;-72
2021/08/08 08:08:30;;;;;;;5.95;2.53;;;;;;;35.43;27.04;100010.59;5115043;28;20114;-71
2021/08/08 08:10:59;;;;;;;4.28;1.88;;;;;;;35.55;27.31;100010.50;5114655;28;20069;-71
2021/08/08 08:13:28;;;;;;;2.00;1.80;;;;;;;35.82;26.40;100023.09;5114626;28;20463;-71
2021/08/08 08:15:57;;;;;;;2.38;1.73;;;;;;;36.39;26.18;100021.91;5114541;28;20030;-71
2021/08/08 08:18:28;;;;;;;4.90;2.00;;;;;;;36.19;26.87;100023.22;5114661;28;20047;-71
2021/08/08 08:20:57;;;;;;;3.85;2.10;;;;;;;35.55;26.29;100017.06;5113975;28;20020;-71
2021/08/08 08:23:28;;;;;;;4.30;1.98;;;;;;;35.45;27.03;100020.88;5114358;28;20408;-71
2021/08/08 08:25:59;;;;;;;2.00;1.80;;;;;;;35.76;26.29;100014.47;5114690;28;20382;-71
2021/08/08 08:28:29;;;;;;;2.38;1.77;;;;;;;35.62;27.07;100033.03;5114288;28;20028;-71
2021/08/08 08:30:57;;;;;;;1.98;1.75;;;;;;;36.15;25.20;100027.75;5114324;28;20032;-71
2021/08/08 08:33:26;;;;;;;3.05;1.83;;;;;;;36.47;24.47;100027.88;5114299;28;20032;-71
2021/08/08 08:35:57;;;;;;;6.40;1.70;;;;;;;37.01;23.65;100044.22;5114416;28;20369;-72
2021/08/08 08:38:28;;;;;;;2.80;1.75;;;;;;;36.45;24.15;100037.13;5114383;28;20439;-71
2021/08/08 08:40:58;;;;;;;3.00;2.05;;;;;;;36.04;24.55;100036.56;5114132;28;20020;-72
2021/08/08 08:43:29;;;;;;;2.38;1.90;;;;;;;35.97;25.05;100035.06;5114447;28;20470;-71
2021/08/08 08:45:57;;;;;;;2.25;2.00;;;;;;;36.15;24.65;100039.31;5114553;28;20028;-71
2021/08/08 08:48:23;;;;;;;3.35;2.22;;;;;;;35.94;25.50;100048.50;5115224;27;20032;-72
2021/08/08 08:50:54;;;;;;;2.55;2.10;;;;;;;36.72;24.95;100048.84;5114002;28;20620;-71
2021/08/08 08:53:22;;;;;;;5.25;2.60;;;;;;;37.10;24.17;100057.53;5113807;28;20028;-71
2021/08/08 08:55:53;;;;;;;2.95;2.30;;;;;;;37.22;23.62;100053.09;5114992;28;20020;-72
2021/08/08 08:58:24;;;;;;;3.00;2.28;;;;;;;37.71;23.13;100062.31;5113604;28;20043;-71
2021/08/08 09:00:53;;;;;;;1.83;1.73;;;;;;;37.91;21.77;100063.78;5113987;28;20462;-70
2021/08/08 09:03:21;;;;;;;2.90;1.85;;;;;;;38.22;20.68;100067.91;5113847;28;20039;-71
2021/08/08 09:05:54;;;;;;;3.35;1.80;;;;;;;37.76;21.02;100060.63;5096739;28;20032;-71
2021/08/08 09:08:23;;;;;;;2.42;1.70;;;;;;;38.23;21.25;100068.69;5113671;28;20034;-71
2021/08/08 09:11:06;;;;;;;2.08;1.75;;;;;;;38.45;21.04;100062.44;5113229;28;20061;-71
2021/08/08 09:13:56;;;;;;;5.45;2.00;;;;;;;38.82;20.56;100072.22;5113531;28;20466;-71
2021/08/08 09:16:25;;;;;;;1.65;1.50;;;;;;;39.54;19.24;100071.81;5113348;28;20031;-72
2021/08/08 09:18:55;;;;;;;3.38;1.40;;;;;;;39.17;19.76;100078.81;5112888;28;20043;-72
2021/08/08 09:21:25;;;;;;;2.72;1.50;;;;;;;39.86;19.08;100071.50;5130513;27;20047;-72
2021/08/08 09:24:00;;;;;;;4.00;1.33;;;;;;;39.97;18.40;100082.84;5131077;27;20019;-71
2021/08/08 09:26:34;;;;;;;1.65;1.27;;;;;;;39.84;17.60;100085.84;5096364;28;20058;-72
2021/08/08 09:29:15;;;;;;;1.55;1.02;;;;;;;40.36;17.20;100080.19;5113869;28;20104;-70
2021/08/08 09:31:45;;;;;;;;;;;;;;;40.36;17.81;100078.03;5113430;28;20032;-71
2021/08/08 09:34:29;;;;;;;1.52;1.10;;;;;;;40.08;17.71;100081.78;5112466;28;19919;-71
2021/08/08 09:36:59;;;;;;;1.70;1.08;;;;;;;40.46;15.25;100084.91;5113299;28;20027;-70
2021/08/08 09:39:35;;;;;;;1.48;1.23;;;;;;;39.95;16.07;100079.72;5113359;28;20493;-70
2021/08/08 09:42:27;;;;;;;1.58;0.93;;;;;;;41.15;15.04;100090.25;5113222;28;20031;-71
2021/08/08 09:45:02;;;;;;;1.45;1.23;;;;;;;41.37;14.79;100092.44;5101797;28;20096;-70
2021/08/08 09:47:49;;;;;;;1.00;0.90;;;;;;;40.50;16.07;100091.16;5113458;28;20494;-70
2021/08/08 09:50:16;;;;;;;2.15;1.10;;;;;;;40.97;15.85;100081.25;5113720;28;20081;-71
2021/08/08 09:52:52;;;;;;;1.67;1.10;;;;;;;41.03;15.10;100078.16;5113424;28;20031;-72
2021/08/08 09:55:27;;;;;;;2.53;0.90;;;;;;;40.37;15.25;100076.69;5112737;28;20131;-72
2021/08/08 09:57:58;;;;;;;2.78;1.40;;;;;;;40.79;15.24;100079.41;5112724;28;20027;-72
2021/08/08 10:00:40;;;;;;;2.30;1.15;;;;;;;39.39;15.96;100083.31;5112769;28;20030;-71
2021/08/08 10:03:11;;;;;;;1.50;0.88;;;;;;;40.31;15.25;100076.06;5113314;28;20035;-70
2021/08/08 10:05:40;;;;;;;1.10;1.00;;;;;;;41.22;14.95;100074.88;5112706;28;20130;-71
2021/08/08 10:08:10;;;;;;;0.93;0.77;;;;;;;40.06;15.49;100070.69;5113253;28;20032;-71
2021/08/08 10:10:39;;;;;;;1.30;1.00;;;;;;;39.76;15.55;100068.31;5112713;28;20031;-72
2021/08/08 10:13:16;;;;;;;3.03;1.38;;;;;;;40.57;14.75;100077.97;5112620;28;20489;-72
2021/08/08 10:15:46;;;;;;;1.42;0.93;;;;;;;41.35;14.68;100086.41;5113068;28;20374;-72
2021/08/08 10:18:14;;;;;;;1.60;1.40;;;;;;;41.16;15.05;100095.50;5112483;28;20134;-71
2021/08/08 10:20:43;;;;;;;1.10;1.02;;;;;;;41.59;14.94;100074.16;5112720;28;20497;-70
2021/08/08 10:23:14;;;;;;;1.05;0.93;;;;;;;40.44;14.68;100092.66;5112525;28;20470;-71
2021/08/08 10:25:47;;;;;;;2.80;1.10;;;;;;;40.23;15.53;100092.75;5112439;28;20030;-71
2021/08/08 10:28:15;;;;;;;2.42;0.95;;;;;;;39.97;15.75;100088.66;5113578;28;20032;-72
2021/08/08 10:30:44;;;;;;;1.20;1.10;;;;;;;39.54;16.08;100089.28;5113051;28;20361;-71
2021/08/08 10:33:11;;;;;;;1.00;0.90;;;;;;;39.18;16.30;100100.75;5112755;28;20035;-72
2021/08/08 10:35:47;;;;;;;1.35;1.20;;;;;;;39.99;15.36;100096.81;5112610;28;20524;-71
2021/08/08 10:38:15;;;;;;;1.42;1.10;;;;;;;39.59;15.52;100096.31;5129662;28;20084;-72
2021/08/08 10:40:46;;;;;;;1.02;0.90;;;;;;;39.94;15.37;100103.59;5112190;28;20024;-71
2021/08/08 10:43:27;;;;;;;1.27;0.95;;;;;;;39.96;15.47;100106.72;5113402;28;20062;-72
2021/08/08 10:46:09;;;;;;;1.70;1.00;;;;;;;39.79;15.89;100102.13;5115240;28;20023;-72
2021/08/08 10:48:39;;;;;;;1.92;1.00;;;;;;;39.76;16.63;100108.31;5133546;27;20030;-71
2021/08/08 10:51:24;;;;;;;1.25;0.90;;;;;;;40.43;14.84;100085.25;5133504;27;20072;-72
2021/08/08 10:54:07;;;;;;;1.90;1.05;;;;;;;39.84;15.39;100103.31;5116519;28;20426;-72
2021/08/08 10:56:53;;;;;;;1.60;1.27;;;;;;;38.87;16.55;100108.34;5116161;28;20032;-72
2021/08/08 10:59:24;;;;;;;1.55;1.08;;;;;;;39.50;15.72;100104.19;5115657;28;20065;-72
2021/08/08 11:02:09;;;;;;;3.30;1.35;;;;;;;39.67;16.00;100114.63;5133591;27;20054;-70
2021/08/08 11:04:43;;;;;;;1.40;1.30;;;;;;;39.76;15.76;100119.97;5116071;28;20038;-71
2021/08/08 11:07:11;;;;;;;0.93;0.90;;;;;;;39.63;15.29;100108.38;5117900;28;20110;-71
2021/08/08 11:09:43;;;;;;;1.30;1.20;;;;;;;39.56;16.31;100109.84;5116077;28;20474;-71
2021/08/08 11:12:16;;;;;;;2.97;1.50;;;;;;;40.25;15.99;100113.34;5115949;28;20118;-71
2021/08/08 11:14:48;;;;;;;5.85;5.45;;;;;;;40.01;15.78;100118.22;5116047;27;20027;-71
2021/08/08 11:17:16;;;;;;;3.78;3.03;;;;;;;40.25;15.64;100108.28;5115895;28;20024;-71
2021/08/08 11:19:47;;;;;;;2.72;2.50;;;;;;;39.93;15.71;100108.63;5115510;28;20504;-71
2021/08/08 11:22:20;;;;;;;4.10;2.13;;;;;;;39.33;16.74;100121.28;5115742;28;20057;-71
2021/08/08 11:24:59;;;;;;;1.98;1.88;;;;;;;40.03;16.29;100106.75;5116511;28;20427;-71
2021/08/08 11:27:32;;;;;;;3.05;2.75;;;;;;;39.94;15.63;100110.19;5116231;28;20032;-71
2021/08/08 11:30:07;;;;;;;3.88;3.53;;;;;;;39.19;17.06;100111.81;5099222;28;20206;-72
2021/08/08 11:32:39;;;;;;;3.92;2.25;;;;;;;38.59;17.80;100109.72;5115529;28;20032;-71
2021/08/08 11:35:13;;;;;;;2.45;2.25;;;;;;;39.42;17.30;100117.91;5116792;28;20016;-71
2021/08/08 11:37:44;;;;;;;7.15;6.32;;;;;;;39.09;17.58;100118.66;5133180;27;20451;-71
2021/08/08 11:40:23;;;;;;;7.13;6.37;;;;;;;38.94;18.23;100120.06;5132849;27;20385;-70
2021/08/08 11:43:00;;;;;;;5.18;4.72;;;;;;;39.35;17.82;100118.59;5133078;27;20316;-71